createdAt,value
2022-12-19T00:00:14.865Z,19.75
2022-12-19T00:02:45.445Z,17.75
2022-12-19T00:05:22.640Z,19.25
2022-12-19T00:07:57.147Z,18.13
2022-12-19T00:10:28.796Z,19.40
2022-12-19T00:13:02.868Z,18.65
2022-12-19T00:15:35.404Z,17.60
2022-12-19T00:18:09.020Z,17.52
2022-12-19T00:20:36.507Z,19.08
2022-12-19T00:23:03.953Z,19.02
2022-12-19T00:25:40.252Z,17.05
2022-12-19T00:28:12.659Z,16.65
2022-12-19T00:30:47.633Z,18.77
2022-12-19T00:33:15.764Z,17.55
2022-12-19T00:35:45.793Z,18.27
2022-12-19T00:38:14.255Z,17.48
2022-12-19T00:40:54.659Z,17.85
2022-12-19T00:43:28.474Z,13.27
2022-12-19T00:46:01.116Z,16.83
2022-12-19T00:48:31.646Z,16.92
2022-12-19T00:51:13.686Z,17.75
2022-12-19T00:53:49.813Z,17.23
2022-12-19T00:56:21.360Z,18.77
2022-12-19T00:58:55.209Z,16.98
2022-12-19T01:01:27.366Z,17.30
2022-12-19T01:06:52.008Z,18.08
2022-12-19T01:09:24.056Z,18.13
2022-12-19T01:12:24.482Z,19.58
2022-12-19T01:15:05.389Z,19.02
2022-12-19T01:17:45.042Z,18.60
2022-12-19T01:20:21.420Z,17.70
2022-12-19T01:23:00.813Z,17.83
2022-12-19T01:25:33.446Z,17.98
2022-12-19T01:28:14.888Z,16.45
2022-12-19T01:30:51.434Z,17.40
2022-12-19T01:33:33.642Z,17.83
2022-12-19T01:36:07.883Z,19.30
2022-12-19T01:38:38.889Z,23.40
2022-12-19T01:41:08.489Z,18.30
2022-12-19T01:44:10.037Z,17.65
2022-12-19T01:47:00.796Z,18.55
2022-12-19T01:49:37.415Z,17.85
2022-12-19T01:52:20.761Z,18.17
2022-12-19T01:54:55.673Z,17.33
2022-12-19T01:57:25.997Z,17.55
2022-12-19T02:00:00.591Z,18.63
2022-12-19T02:03:29.583Z,17.30
2022-12-19T02:06:04.827Z,20.25
2022-12-19T02:08:44.373Z,17.83
2022-12-19T02:11:12.294Z,20.00
2022-12-19T02:13:44.787Z,18.93
2022-12-19T02:16:54.278Z,17.52
2022-12-19T02:19:44.960Z,17.55
2022-12-19T02:22:22.783Z,17.90
2022-12-19T02:25:29.186Z,17.88
2022-12-19T02:28:10.916Z,18.05
2022-12-19T02:31:16.412Z,16.25
2022-12-19T02:33:59.208Z,16.85
2022-12-19T02:36:41.927Z,16.75
2022-12-19T02:39:42.046Z,17.52
2022-12-19T02:42:12.961Z,17.70
2022-12-19T02:44:49.694Z,18.52
2022-12-19T02:47:17.623Z,17.92
2022-12-19T02:49:44.663Z,18.63
2022-12-19T02:52:20.098Z,17.40
2022-12-19T02:54:51.911Z,16.13
2022-12-19T02:57:30.156Z,18.20
2022-12-19T02:59:58.072Z,17.33
2022-12-19T03:02:55.963Z,17.60
2022-12-19T03:05:57.111Z,15.63
2022-12-19T03:08:37.564Z,17.17
2022-12-19T03:11:13.622Z,17.67
2022-12-19T03:13:54.103Z,16.88
2022-12-19T03:16:21.243Z,18.13
2022-12-19T03:18:48.909Z,17.98
2022-12-19T03:21:25.532Z,17.00
2022-12-19T03:23:55.132Z,17.20
2022-12-19T03:26:26.566Z,17.17
2022-12-19T03:29:00.113Z,18.27
2022-12-19T03:31:31.546Z,17.90
2022-12-19T03:34:03.056Z,17.23
2022-12-19T03:36:40.392Z,19.38
2022-12-19T03:39:10.953Z,18.15
2022-12-19T03:42:09.745Z,16.45
2022-12-19T03:44:39.578Z,16.95
2022-12-19T03:47:16.191Z,18.42
2022-12-19T03:49:43.690Z,19.40
2022-12-19T03:52:37.380Z,18.33
2022-12-19T03:55:21.702Z,18.17
2022-12-19T03:58:06.255Z,17.80
2022-12-19T04:00:36.704Z,17.27
2022-12-19T04:03:05.579Z,19.10
2022-12-19T04:05:33.870Z,16.75
2022-12-19T04:08:08.263Z,17.45
2022-12-19T04:10:44.305Z,17.50
2022-12-19T04:13:16.361Z,19.48
2022-12-19T04:16:07.418Z,17.40
2022-12-19T04:18:35.369Z,17.58
2022-12-19T04:21:25.212Z,18.42
2022-12-19T04:23:58.312Z,16.77
2022-12-19T04:26:26.765Z,18.13
2022-12-19T04:28:57.886Z,18.38
2022-12-19T04:31:25.511Z,17.98
2022-12-19T04:33:52.607Z,18.35
2022-12-19T04:36:19.647Z,18.13
2022-12-19T04:38:46.618Z,17.45
2022-12-19T04:41:13.666Z,18.60
2022-12-19T04:43:40.756Z,18.63
2022-12-19T04:46:07.822Z,17.95
2022-12-19T04:48:37.693Z,19.20
2022-12-19T04:51:05.266Z,17.55
2022-12-19T04:53:32.720Z,18.63
2022-12-19T04:56:05.190Z,20.67
2022-12-19T04:58:32.994Z,17.63
2022-12-19T05:01:08.481Z,18.08
2022-12-19T05:03:36.578Z,18.95
2022-12-19T05:06:08.956Z,18.58
2022-12-19T05:08:37.192Z,18.23
2022-12-19T05:11:05.165Z,18.67
2022-12-19T05:13:32.472Z,18.00
2022-12-19T05:16:01.221Z,18.05
2022-12-19T05:18:29.240Z,18.30
2022-12-19T05:20:56.579Z,17.38
2022-12-19T05:23:23.649Z,17.00
2022-12-19T05:25:51.112Z,17.50
2022-12-19T05:28:19.120Z,19.50
2022-12-19T05:30:51.934Z,17.35
2022-12-19T05:33:19.382Z,18.58
2022-12-19T05:35:47.843Z,17.77
2022-12-19T05:38:14.906Z,17.75
2022-12-19T05:40:42.199Z,18.50
2022-12-19T05:43:09.176Z,19.88
2022-12-19T05:45:36.156Z,18.15
2022-12-19T05:48:03.409Z,17.55
2022-12-19T05:50:30.420Z,16.88
2022-12-19T05:53:09.006Z,18.25
2022-12-19T05:55:35.973Z,17.70
2022-12-19T05:58:03.006Z,18.17
2022-12-19T06:00:29.989Z,17.65
2022-12-19T06:02:57.129Z,17.30
2022-12-19T06:05:24.165Z,18.15
2022-12-19T06:07:51.135Z,18.48
2022-12-19T06:10:18.177Z,19.52
2022-12-19T06:12:45.172Z,17.95
2022-12-19T06:15:12.544Z,17.63
2022-12-19T06:17:39.733Z,19.33
2022-12-19T06:20:07.316Z,17.73
2022-12-19T06:22:35.256Z,18.92
2022-12-19T06:25:02.288Z,19.50
2022-12-19T06:27:29.964Z,18.20
2022-12-19T06:29:56.918Z,17.30
2022-12-19T06:32:24.535Z,17.65
2022-12-19T06:35:06.913Z,17.70
2022-12-19T06:37:35.219Z,17.90
2022-12-19T06:40:04.084Z,16.17
2022-12-19T06:42:31.173Z,17.92
2022-12-19T06:44:58.335Z,19.73
2022-12-19T06:47:25.577Z,17.63
2022-12-19T06:49:52.599Z,17.73
2022-12-19T06:52:19.714Z,18.30
2022-12-19T06:54:46.700Z,18.00
2022-12-19T06:57:13.736Z,17.80
2022-12-19T06:59:40.970Z,15.52
2022-12-19T07:02:08.081Z,18.02
2022-12-19T07:04:48.849Z,17.23
2022-12-19T07:07:16.139Z,18.15
2022-12-19T07:09:43.315Z,18.08
2022-12-19T07:12:10.388Z,15.57
2022-12-19T07:14:37.393Z,17.23
2022-12-19T07:17:04.943Z,17.77
2022-12-19T07:19:32.880Z,17.70
2022-12-19T07:22:02.065Z,17.90
2022-12-19T07:24:29.933Z,16.75
2022-12-19T07:26:57.289Z,18.17
2022-12-19T07:29:24.413Z,18.55
2022-12-19T07:31:51.523Z,18.30
2022-12-19T07:34:18.563Z,18.83
2022-12-19T07:36:45.605Z,17.95
2022-12-19T07:39:12.612Z,19.73
2022-12-19T07:41:39.637Z,18.20
2022-12-19T07:44:07.442Z,18.33
2022-12-19T07:46:34.972Z,18.15
2022-12-19T07:49:02.048Z,19.65
2022-12-19T07:51:29.170Z,17.90
2022-12-19T07:53:56.268Z,16.83
2022-12-19T07:56:23.444Z,19.00
2022-12-19T07:58:51.733Z,18.83
2022-12-19T08:01:19.323Z,18.15
2022-12-19T08:03:46.522Z,18.90
2022-12-19T08:06:13.545Z,18.63
2022-12-19T08:08:40.616Z,18.50
2022-12-19T08:11:13.376Z,19.48
2022-12-19T08:13:46.487Z,17.80
2022-12-19T08:16:14.525Z,19.45
2022-12-19T08:18:41.679Z,18.15
2022-12-19T08:21:09.476Z,18.02
2022-12-19T08:23:37.022Z,18.85
2022-12-19T08:26:10.584Z,19.05
2022-12-19T08:28:38.259Z,18.65
2022-12-19T08:31:10.910Z,18.50
2022-12-19T08:33:38.123Z,17.50
2022-12-19T08:36:13.185Z,19.42
2022-12-19T08:38:41.277Z,19.52
2022-12-19T08:41:09.290Z,18.98
2022-12-19T08:43:36.445Z,18.58
2022-12-19T08:46:03.562Z,17.17
2022-12-19T08:48:32.499Z,18.63
2022-12-19T08:51:03.011Z,20.05
2022-12-19T08:53:32.087Z,16.70
2022-12-19T08:56:01.668Z,16.67
2022-12-19T08:58:30.769Z,18.23
2022-12-19T09:01:05.509Z,15.68
2022-12-19T09:03:49.051Z,17.63
2022-12-19T09:06:20.553Z,16.25
2022-12-19T09:08:47.763Z,16.95
2022-12-19T09:11:17.995Z,16.80
2022-12-19T09:13:45.910Z,16.65
2022-12-19T09:16:21.745Z,17.33
2022-12-19T09:18:50.545Z,17.52
2022-12-19T09:21:19.478Z,17.02
2022-12-19T09:23:51.780Z,16.00
2022-12-19T09:26:19.469Z,17.23
2022-12-19T09:28:48.198Z,17.88
2022-12-19T09:31:18.173Z,16.75
2022-12-19T09:33:45.427Z,17.50
2022-12-19T09:36:15.657Z,16.00
2022-12-19T09:38:43.469Z,14.40
2022-12-19T09:41:19.477Z,16.90
2022-12-19T09:44:19.949Z,16.60
2022-12-19T09:46:52.012Z,16.40
2022-12-19T09:49:26.366Z,17.20
2022-12-19T09:51:56.211Z,16.80
2022-12-19T09:54:26.594Z,16.27
2022-12-19T09:56:59.764Z,15.65
2022-12-19T09:59:49.658Z,19.77
2022-12-19T10:02:33.348Z,18.30
2022-12-19T10:05:21.079Z,15.65
2022-12-19T10:08:10.332Z,17.35
2022-12-19T10:12:42.572Z,18.92
2022-12-19T10:14:09.105Z,17.80
2022-12-19T10:16:56.479Z,18.45
2022-12-19T10:20:12.619Z,17.38
2022-12-19T10:23:20.667Z,19.90
2022-12-19T10:26:14.429Z,19.52
2022-12-19T10:29:03.413Z,20.35
2022-12-19T10:31:37.883Z,19.52
2022-12-19T10:34:23.521Z,19.85
2022-12-19T10:37:25.318Z,20.67
2022-12-19T10:40:01.708Z,20.42
2022-12-19T10:42:57.825Z,20.92
2022-12-19T10:45:47.420Z,20.65
2022-12-19T10:48:30.383Z,22.08
2022-12-19T10:51:06.318Z,23.20
2022-12-19T10:53:38.130Z,25.45
2022-12-19T10:56:31.662Z,24.55
2022-12-19T10:59:17.645Z,21.90
2022-12-19T11:01:48.608Z,20.67
2022-12-19T11:04:31.318Z,22.83
2022-12-19T11:07:03.920Z,22.30
2022-12-19T11:09:40.234Z,20.45
2022-12-19T11:15:49.465Z,20.45
2022-12-19T11:20:42.872Z,20.52
2022-12-19T11:23:47.968Z,18.85
2022-12-19T11:29:33.185Z,20.05
2022-12-19T11:29:41.631Z,19.80
2022-12-19T11:30:43.169Z,18.88
2022-12-19T11:32:45.482Z,18.13
2022-12-19T11:35:36.464Z,19.30
2022-12-19T11:38:08.788Z,17.42
2022-12-19T11:43:44.575Z,19.55
2022-12-19T11:46:28.950Z,19.48
2022-12-19T11:49:06.494Z,19.73
2022-12-19T11:51:52.588Z,18.60
2022-12-19T11:54:34.393Z,22.55
2022-12-19T11:57:01.447Z,22.05
2022-12-19T11:59:34.525Z,22.45
2022-12-19T12:02:22.725Z,23.00
2022-12-19T12:05:14.398Z,24.88
2022-12-19T12:09:48.462Z,23.10
2022-12-19T12:15:40.538Z,29.98
2022-12-19T12:23:17.161Z,29.95
2022-12-19T12:31:00.704Z,29.73
2022-12-19T12:31:05.234Z,28.90
2022-12-19T12:31:23.448Z,29.13
2022-12-19T12:31:40.923Z,29.42
2022-12-19T12:31:56.046Z,29.17
2022-12-19T12:35:30.456Z,28.88
2022-12-19T12:38:29.343Z,29.00
2022-12-19T12:41:14.884Z,28.98
2022-12-19T12:43:47.736Z,30.67
2022-12-19T12:46:23.604Z,31.70
2022-12-19T12:48:53.594Z,29.42
2022-12-19T12:51:23.241Z,28.75
2022-12-19T12:54:20.246Z,29.75
2022-12-19T12:56:48.448Z,32.85
2022-12-19T12:59:22.923Z,30.17
2022-12-19T13:01:55.663Z,30.20
2022-12-19T13:04:42.325Z,29.15
2022-12-19T13:07:24.379Z,29.40
2022-12-19T13:10:13.067Z,32.05
2022-12-19T13:12:59.856Z,29.55
2022-12-19T13:15:29.984Z,28.50
2022-12-19T13:17:56.953Z,31.08
2022-12-19T13:20:23.893Z,29.50
2022-12-19T13:23:00.612Z,29.13
2022-12-19T13:25:27.561Z,31.08
2022-12-19T13:28:01.276Z,29.70
2022-12-19T13:30:46.435Z,29.83
2022-12-19T13:33:20.188Z,28.33
2022-12-19T13:39:34.853Z,30.77
2022-12-19T13:39:51.641Z,28.90
2022-12-19T13:42:00.550Z,30.98
2022-12-19T13:44:28.404Z,30.77
2022-12-19T13:46:56.438Z,30.48
2022-12-19T13:49:34.133Z,30.35
2022-12-19T13:52:04.363Z,29.65
2022-12-19T13:54:48.842Z,30.23
2022-12-19T13:57:21.448Z,30.20
2022-12-19T14:00:00.117Z,30.13
2022-12-19T14:02:45.095Z,29.67
2022-12-19T14:06:15.879Z,27.48
2022-12-19T14:08:25.048Z,29.80
2022-12-19T14:11:37.543Z,30.73
2022-12-19T14:14:27.463Z,30.88
2022-12-19T14:17:05.464Z,30.77
2022-12-19T14:19:40.013Z,28.73
2022-12-19T14:22:25.294Z,29.85
2022-12-19T14:25:01.221Z,31.63
2022-12-19T14:28:26.776Z,29.42
2022-12-19T14:30:43.614Z,30.02
2022-12-19T14:33:44.909Z,30.75
2022-12-19T14:36:15.227Z,28.85
2022-12-19T14:39:27.800Z,31.88
2022-12-19T14:42:02.715Z,30.38
2022-12-19T14:54:10.124Z,28.58
2022-12-19T14:54:10.366Z,31.23
2022-12-19T14:54:11.922Z,30.60
2022-12-19T14:54:29.546Z,35.05
2022-12-19T14:56:54.470Z,28.60
2022-12-19T14:59:06.343Z,31.85
2022-12-19T15:01:35.101Z,32.80
2022-12-19T15:04:52.362Z,31.90
2022-12-19T15:07:07.751Z,31.25
2022-12-19T15:11:05.357Z,31.13
2022-12-19T15:14:51.840Z,31.02
2022-12-19T15:16:05.019Z,31.92
2022-12-19T15:18:38.794Z,31.30
2022-12-19T15:21:14.678Z,32.83
2022-12-19T15:23:44.722Z,31.42
2022-12-19T15:26:17.755Z,32.40
2022-12-19T15:28:51.551Z,33.80
2022-12-19T15:31:40.746Z,32.13
2022-12-19T15:36:58.551Z,30.80
2022-12-19T15:39:29.580Z,32.00
2022-12-19T15:41:59.483Z,30.90
2022-12-19T15:44:41.875Z,34.90
2022-12-19T15:47:30.748Z,32.22
2022-12-19T15:50:02.720Z,32.03
2022-12-19T15:52:30.163Z,35.00
2022-12-19T15:54:57.531Z,33.10
2022-12-19T15:57:29.901Z,33.05
2022-12-19T15:59:59.855Z,33.85
2022-12-19T16:02:42.670Z,35.00
2022-12-19T16:05:16.290Z,32.33
2022-12-19T16:07:43.567Z,32.65
2022-12-19T16:10:12.013Z,34.88
2022-12-19T16:12:50.677Z,34.22
2022-12-19T16:15:31.762Z,35.53
2022-12-19T16:18:00.572Z,33.97
2022-12-19T16:20:36.032Z,36.83
2022-12-19T16:23:03.512Z,35.60
2022-12-19T16:25:42.287Z,36.40
2022-12-19T16:28:17.014Z,35.42
2022-12-19T16:30:44.700Z,35.90
2022-12-19T16:33:21.163Z,36.30
2022-12-19T16:36:06.543Z,87.13
2022-12-19T16:38:34.192Z,65.53
2022-12-19T16:41:03.929Z,61.20
2022-12-19T16:43:38.424Z,47.53
2022-12-19T16:46:07.689Z,43.95
2022-12-19T16:48:36.010Z,39.00
2022-12-19T16:51:03.427Z,36.50
2022-12-19T16:53:31.202Z,33.83
2022-12-19T16:56:00.068Z,69.78
2022-12-19T16:58:29.254Z,45.72
2022-12-19T17:00:57.261Z,40.22
2022-12-19T17:03:41.674Z,34.30
2022-12-19T17:06:18.712Z,37.10
2022-12-19T17:08:46.023Z,40.25
2022-12-19T17:11:21.258Z,46.05
2022-12-19T17:13:51.127Z,37.90
2022-12-19T17:16:18.747Z,34.05
2022-12-19T17:18:47.088Z,35.10
2022-12-19T17:21:17.956Z,39.13
2022-12-19T17:23:46.451Z,36.22
2022-12-19T17:26:17.602Z,37.50
2022-12-19T17:28:48.228Z,43.05
2022-12-19T17:31:27.997Z,41.37
2022-12-19T17:33:56.480Z,39.78
2022-12-19T17:36:32.649Z,37.85
2022-12-19T17:39:02.343Z,40.53
2022-12-19T17:41:29.480Z,37.60
2022-12-19T17:43:56.464Z,35.42
2022-12-19T17:46:24.960Z,35.13
2022-12-19T17:48:53.540Z,34.80
2022-12-19T17:51:22.963Z,35.60
2022-12-19T17:53:50.177Z,35.63
2022-12-19T17:56:19.243Z,34.95
2022-12-19T17:58:47.342Z,35.08
2022-12-19T18:01:22.658Z,35.42
2022-12-19T18:03:52.292Z,36.35
2022-12-19T18:06:20.439Z,39.95
2022-12-19T18:08:47.913Z,34.85
2022-12-19T18:11:25.964Z,38.45
2022-12-19T18:13:53.786Z,37.90
2022-12-19T18:16:28.309Z,39.17
2022-12-19T18:18:56.511Z,37.78
2022-12-19T18:21:24.823Z,35.72
2022-12-19T18:23:52.801Z,38.25
2022-12-19T18:26:19.910Z,36.35
2022-12-19T18:28:46.966Z,37.03
2022-12-19T18:31:26.076Z,36.15
2022-12-19T18:33:55.235Z,37.00
2022-12-19T18:36:27.941Z,33.88
2022-12-19T18:38:56.765Z,36.22
2022-12-19T18:41:24.382Z,38.90
2022-12-19T18:43:51.413Z,34.97
2022-12-19T18:46:28.594Z,39.63
2022-12-19T18:48:55.761Z,37.90
2022-12-19T18:51:23.305Z,37.45
2022-12-19T18:53:51.336Z,38.97
2022-12-19T18:56:18.726Z,38.50
2022-12-19T18:58:46.293Z,38.22
2022-12-19T19:01:17.598Z,37.55
2022-12-19T19:03:53.859Z,37.35
2022-12-19T19:06:24.458Z,36.50
2022-12-19T19:08:53.868Z,34.37
2022-12-19T19:11:40.327Z,35.97
2022-12-19T19:14:07.418Z,34.70
2022-12-19T19:16:36.253Z,39.10
2022-12-19T19:19:05.712Z,38.85
2022-12-19T19:21:35.222Z,34.85
2022-12-19T19:24:16.251Z,37.78
2022-12-19T19:26:44.001Z,34.78
2022-12-19T19:29:13.723Z,38.15
2022-12-19T19:31:45.141Z,35.38
2022-12-19T19:34:17.434Z,37.35
2022-12-19T19:36:49.745Z,36.97
2022-12-19T19:39:20.115Z,34.13
2022-12-19T19:41:47.282Z,41.00
2022-12-19T19:44:14.461Z,40.05
2022-12-19T19:46:43.021Z,35.03
2022-12-19T19:49:10.841Z,43.55
2022-12-19T19:51:38.008Z,39.33
2022-12-19T19:54:05.655Z,38.50
2022-12-19T19:56:32.869Z,36.10
2022-12-19T19:59:00.786Z,36.63
2022-12-19T20:01:28.005Z,37.92
2022-12-19T20:03:55.288Z,35.08
2022-12-19T20:06:22.556Z,35.85
2022-12-19T20:08:50.485Z,35.88
2022-12-19T20:11:18.032Z,36.60
2022-12-19T20:13:45.081Z,36.55
2022-12-19T20:16:18.280Z,35.22
2022-12-19T20:18:51.385Z,37.38
2022-12-19T20:21:20.209Z,35.72
2022-12-19T20:23:47.668Z,34.03
2022-12-19T20:26:16.484Z,36.08
2022-12-19T20:28:48.869Z,37.05
2022-12-19T20:31:22.551Z,33.70
2022-12-19T20:33:50.987Z,34.92
2022-12-19T20:36:19.047Z,34.42
2022-12-19T20:38:48.441Z,34.45
2022-12-19T20:41:16.389Z,39.03
2022-12-19T20:43:44.036Z,38.08
2022-12-19T20:46:13.837Z,36.20
2022-12-19T20:48:41.836Z,32.95
2022-12-19T20:51:10.144Z,34.42
2022-12-19T20:53:39.443Z,34.63
2022-12-19T20:56:08.062Z,33.50
2022-12-19T20:58:37.876Z,33.80
2022-12-19T21:01:11.250Z,34.35
2022-12-19T21:03:39.525Z,34.08
2022-12-19T21:06:07.959Z,31.55
2022-12-19T21:08:35.776Z,31.42
2022-12-19T21:11:04.011Z,34.92
2022-12-19T21:13:31.469Z,34.10
2022-12-19T21:16:03.294Z,30.88
2022-12-19T21:18:31.193Z,32.50
2022-12-19T21:20:59.494Z,33.65
2022-12-19T21:23:27.446Z,33.25
2022-12-19T21:25:58.594Z,33.92
2022-12-19T21:28:26.002Z,34.28
2022-12-19T21:31:01.769Z,32.20
2022-12-19T21:33:29.112Z,31.85
2022-12-19T21:35:56.740Z,34.22
2022-12-19T21:38:24.572Z,33.33
2022-12-19T21:40:51.617Z,32.72
2022-12-19T21:43:18.618Z,31.98
2022-12-19T21:45:45.691Z,34.13
2022-12-19T21:48:12.764Z,30.70
2022-12-19T21:50:40.082Z,30.80
2022-12-19T21:53:07.097Z,32.13
2022-12-19T21:55:34.179Z,30.58
2022-12-19T21:58:01.168Z,30.25
2022-12-19T22:00:28.247Z,32.97
2022-12-19T22:03:13.272Z,30.60
2022-12-19T22:05:41.743Z,31.85
2022-12-19T22:08:10.772Z,31.73
2022-12-19T22:10:39.655Z,32.97
2022-12-19T22:13:06.621Z,32.60
2022-12-19T22:15:35.896Z,31.25
2022-12-19T22:18:02.886Z,30.25
2022-12-19T22:20:30.205Z,30.20
2022-12-19T22:22:57.259Z,29.70
2022-12-19T22:25:24.253Z,30.67
2022-12-19T22:27:51.339Z,29.33
2022-12-19T22:30:18.363Z,29.48
2022-12-19T22:32:45.553Z,32.42
2022-12-19T22:35:12.624Z,29.15
2022-12-19T22:37:40.022Z,29.80
2022-12-19T22:40:08.166Z,29.77
2022-12-19T22:42:35.194Z,29.33
2022-12-19T22:45:02.169Z,29.80
2022-12-19T22:47:29.169Z,28.23
2022-12-19T22:49:56.371Z,27.77
2022-12-19T22:52:23.962Z,29.33
2022-12-19T22:54:50.929Z,30.00
2022-12-19T22:57:17.927Z,29.98
2022-12-19T22:59:44.925Z,30.20
2022-12-19T23:02:12.070Z,29.10
2022-12-19T23:04:39.166Z,28.98
2022-12-19T23:07:06.182Z,30.40
2022-12-19T23:09:33.193Z,31.30
2022-12-19T23:12:00.184Z,30.52
2022-12-19T23:14:27.201Z,30.77
2022-12-19T23:16:54.284Z,29.50
2022-12-19T23:19:21.329Z,30.08
2022-12-19T23:21:48.428Z,28.58
2022-12-19T23:24:15.549Z,29.92
2022-12-19T23:26:42.588Z,29.35
2022-12-19T23:29:12.314Z,32.92
2022-12-19T23:31:41.388Z,30.48
2022-12-19T23:34:08.914Z,29.42
2022-12-19T23:39:23.244Z,31.52
2022-12-19T23:41:50.241Z,32.40
2022-12-19T23:44:17.516Z,31.33
2022-12-19T23:46:44.533Z,31.88
2022-12-19T23:49:11.509Z,29.58
2022-12-19T23:51:38.578Z,29.85
2022-12-19T23:54:05.731Z,30.13
2022-12-19T23:56:33.237Z,31.13
2022-12-19T23:59:00.944Z,30.58
